createdAt,value
2023-05-11T00:02:19.350Z,982.5
2023-05-11T00:06:21.871Z,982.4
2023-05-11T00:08:22.920Z,982.4
2023-05-11T00:12:25.813Z,982.3
2023-05-11T00:14:27.251Z,982.3
2023-05-11T00:18:29.411Z,982.4
2023-05-11T00:22:32.307Z,982.3
2023-05-11T00:24:33.427Z,982.4
2023-05-11T00:28:36.398Z,982.4
2023-05-11T00:30:37.847Z,982.2
2023-05-11T00:34:41.281Z,982.3
2023-05-11T00:38:44.500Z,982.3
2023-05-11T00:40:45.768Z,982.3
2023-05-11T00:44:48.209Z,982.3
2023-05-11T00:46:49.520Z,982.3
2023-05-11T00:50:52.703Z,982.3
2023-05-11T00:54:54.990Z,982.4
2023-05-11T00:56:56.213Z,982.3
2023-05-11T01:00:59.046Z,982.2
2023-05-11T01:05:01.466Z,982.2
2023-05-11T01:07:02.680Z,982.3
2023-05-11T01:11:04.863Z,982.3
2023-05-11T01:13:14.504Z,982.3
2023-05-11T01:17:09.850Z,982.3
2023-05-11T01:21:12.757Z,982.3
2023-05-11T01:23:13.892Z,982.3
2023-05-11T01:27:16.779Z,982.2
2023-05-11T01:31:19.665Z,982.2
2023-05-11T01:33:21.267Z,982.3
2023-05-11T01:37:24.423Z,982.2
2023-05-11T01:39:26.074Z,982.1
2023-05-11T01:41:27.734Z,982.2
2023-05-11T01:43:28.718Z,982.3
2023-05-11T01:47:31.514Z,982.2
2023-05-11T01:49:32.735Z,982.3
2023-05-11T01:51:34.180Z,982.3
2023-05-11T01:53:35.739Z,982.3
2023-05-11T01:55:37.250Z,982.3
2023-05-11T01:59:40.380Z,982.2
2023-05-11T02:03:43.418Z,982.2
2023-05-11T02:05:45.034Z,982.3
2023-05-11T02:09:47.880Z,982.1
2023-05-11T02:13:51.165Z,982.2
2023-05-11T02:15:52.977Z,982.2
2023-05-11T02:19:55.104Z,982.2
2023-05-11T02:21:56.325Z,982.2
2023-05-11T02:25:59.097Z,982.1
2023-05-11T02:30:01.959Z,982.1
2023-05-11T02:32:03.246Z,982.2
2023-05-11T02:36:06.009Z,982.1
2023-05-11T02:38:07.580Z,982.1
2023-05-11T02:42:10.782Z,982.1
2023-05-11T02:46:13.190Z,982.1
2023-05-11T02:48:14.675Z,982.1
2023-05-11T02:50:16.053Z,982.1
2023-05-11T02:52:17.283Z,982.1
2023-05-11T02:54:18.196Z,982.1
2023-05-11T02:58:20.815Z,982
2023-05-11T03:02:24.126Z,982.1
2023-05-11T03:04:25.873Z,982.1
2023-05-11T03:08:29.020Z,982.1
2023-05-11T03:12:31.961Z,982.1
2023-05-11T03:14:32.935Z,982.1
2023-05-11T03:18:36.000Z,982.1
2023-05-11T03:20:37.774Z,982.1
2023-05-11T03:24:41.052Z,982.2
2023-05-11T03:28:44.131Z,982.1
2023-05-11T03:30:45.866Z,982.1
2023-05-11T03:34:49.565Z,982.1
2023-05-11T03:36:50.884Z,982
2023-05-11T03:40:53.172Z,982.1
2023-05-11T03:44:55.504Z,982
2023-05-11T03:46:57.446Z,982
2023-05-11T03:49:06.926Z,982
2023-05-11T03:50:59.700Z,982
2023-05-11T03:55:03.342Z,982
2023-05-11T03:57:04.100Z,982
2023-05-11T04:01:06.620Z,982
2023-05-11T04:03:08.635Z,981.9
2023-05-11T04:07:11.340Z,981.9
2023-05-11T04:11:14.193Z,981.9
2023-05-11T04:13:15.495Z,981.9
2023-05-11T04:17:17.442Z,982
2023-05-11T04:19:18.981Z,981.9
2023-05-11T04:23:21.907Z,981.9
2023-05-11T04:27:24.705Z,982
2023-05-11T04:29:26.303Z,981.9
2023-05-11T04:33:29.924Z,981.8
2023-05-11T04:37:32.754Z,981.9
2023-05-11T04:39:33.941Z,982
2023-05-11T04:43:36.282Z,982
2023-05-11T04:45:38.026Z,982
2023-05-11T04:49:41.378Z,982.1
2023-05-11T04:53:44.736Z,982
2023-05-11T04:55:45.561Z,982.1
2023-05-11T04:59:48.214Z,982.1
2023-05-11T05:01:49.503Z,982
2023-05-11T05:05:51.521Z,982.1
2023-05-11T05:09:53.378Z,982.1
2023-05-11T05:11:54.514Z,982.1
2023-05-11T05:15:57.085Z,982.2
2023-05-11T05:17:58.729Z,982.2
2023-05-11T05:22:01.936Z,982.2
2023-05-11T05:26:04.730Z,982.3
2023-05-11T05:28:06.411Z,982.2
2023-05-11T05:32:08.704Z,982.4
2023-05-11T05:36:12.356Z,982.4
2023-05-11T05:38:13.269Z,982.3
2023-05-11T05:42:15.934Z,982.3
2023-05-11T05:44:17.361Z,982.3
2023-05-11T05:48:20.003Z,982.3
2023-05-11T05:52:22.690Z,982.3
2023-05-11T05:54:24.463Z,982.4
2023-05-11T05:58:26.948Z,982.4
2023-05-11T06:00:28.390Z,982.3
2023-05-11T06:04:30.894Z,982.3
2023-05-11T06:08:33.811Z,982.4
2023-05-11T06:13:20.187Z,982.4
2023-05-11T06:15:21.328Z,982.4
2023-05-11T06:19:24.273Z,982.4
2023-05-11T06:21:25.988Z,982.5
2023-05-11T06:25:28.271Z,982.4
2023-05-11T06:29:31.408Z,982.4
2023-05-11T06:31:32.587Z,982.4
2023-05-11T06:35:34.978Z,982.4
2023-05-11T06:37:36.749Z,982.4
2023-05-11T06:41:39.965Z,982.5
2023-05-11T06:45:43.595Z,982.5
2023-05-11T06:47:45.060Z,982.4
2023-05-11T06:51:48.151Z,982.4
2023-05-11T06:55:50.125Z,982.4
2023-05-11T06:57:52.016Z,982.5
2023-05-11T07:01:54.249Z,982.5
2023-05-11T07:03:55.501Z,982.5
2023-05-11T07:05:56.412Z,982.5
2023-05-11T07:07:58.008Z,982.6
2023-05-11T07:12:01.344Z,982.6
2023-05-11T07:14:03.028Z,982.6
2023-05-11T07:16:04.389Z,982.6
2023-05-11T07:18:05.976Z,982.7
2023-05-11T07:20:07.370Z,982.6
2023-05-11T07:24:10.076Z,982.6
2023-05-11T07:26:11.206Z,982.6
2023-05-11T07:28:12.889Z,982.7
2023-05-11T07:30:13.962Z,982.7
2023-05-11T07:34:16.417Z,982.7
2023-05-11T07:36:17.807Z,982.7
2023-05-11T07:40:20.712Z,982.8
2023-05-11T07:44:23.234Z,982.8
2023-05-11T07:46:24.956Z,982.7
2023-05-11T07:50:27.911Z,982.8
2023-05-11T07:54:30.401Z,982.7
2023-05-11T07:56:32.014Z,982.7
2023-05-11T08:00:34.245Z,982.7
2023-05-11T08:02:35.888Z,982.7
2023-05-11T08:06:38.329Z,982.6
2023-05-11T08:10:41.686Z,982.7
2023-05-11T08:12:42.999Z,982.7
2023-05-11T08:16:45.507Z,982.7
2023-05-11T08:18:47.212Z,982.8
2023-05-11T08:22:50.225Z,982.7
2023-05-11T08:24:51.723Z,982.8
2023-05-11T08:26:53.114Z,982.8
2023-05-11T08:28:54.632Z,982.8
2023-05-11T08:32:58.818Z,982.7
2023-05-11T08:36:59.273Z,982.8
2023-05-11T08:39:00.857Z,982.8
2023-05-11T08:43:03.336Z,982.8
2023-05-11T08:45:05.157Z,982.8
2023-05-11T08:49:07.908Z,982.8
2023-05-11T08:53:11.450Z,982.8
2023-05-11T08:55:12.926Z,982.8
2023-05-11T08:59:16.048Z,982.8
2023-05-11T09:01:17.749Z,982.8
2023-05-11T09:05:21.569Z,982.8
2023-05-11T09:09:24.414Z,982.8
2023-05-11T09:11:26.053Z,982.8
2023-05-11T09:15:28.300Z,982.8
2023-05-11T09:19:31.518Z,982.8
2023-05-11T09:21:32.655Z,982.8
2023-05-11T09:25:35.375Z,982.8
2023-05-11T09:27:36.856Z,982.8
2023-05-11T09:29:37.786Z,982.8
2023-05-11T09:31:39.609Z,982.8
2023-05-11T09:35:42.258Z,982.8
2023-05-11T09:37:44.130Z,982.8
2023-05-11T09:41:47.628Z,982.8
2023-05-11T09:43:49.312Z,982.8
2023-05-11T09:47:51.596Z,982.8
2023-05-11T09:51:54.087Z,982.7
2023-05-11T09:53:55.132Z,982.8
2023-05-11T09:57:58.175Z,982.8
2023-05-11T09:59:59.723Z,982.7
2023-05-11T10:04:20.907Z,982.7
2023-05-11T10:08:06.079Z,982.7
2023-05-11T10:10:08.305Z,982.6
2023-05-11T10:14:10.770Z,982.7
2023-05-11T10:18:14.084Z,982.7
2023-05-11T10:20:15.157Z,982.6
2023-05-11T10:24:19.672Z,982.7
2023-05-11T10:26:18.680Z,982.7
2023-05-11T10:30:21.360Z,982.7
2023-05-11T10:34:24.237Z,982.6
2023-05-11T10:36:26.038Z,982.6
2023-05-11T10:40:28.511Z,982.5
2023-05-11T10:42:29.807Z,982.5
2023-05-11T10:46:32.907Z,982.5
2023-05-11T10:50:35.175Z,982.4
2023-05-11T10:52:36.436Z,982.5
2023-05-11T10:56:39.513Z,982.4
2023-05-11T11:00:41.982Z,982.5
2023-05-11T11:02:43.510Z,982.5
2023-05-11T11:06:46.194Z,982.5
2023-05-11T11:08:47.624Z,982.5
2023-05-11T11:12:50.287Z,982.4
2023-05-11T11:16:53.949Z,982.5
2023-05-11T11:18:55.797Z,982.4
2023-05-11T11:22:57.723Z,982.5
2023-05-11T11:24:58.958Z,982.5
2023-05-11T11:29:01.746Z,982.5
2023-05-11T11:33:04.326Z,982.4
2023-05-11T11:35:06.703Z,982.4
2023-05-11T11:39:09.814Z,982.4
2023-05-11T11:43:12.350Z,982.4
2023-05-11T11:45:13.819Z,982.3
2023-05-11T11:49:16.782Z,982.3
2023-05-11T11:51:17.693Z,982.3
2023-05-11T11:55:20.749Z,982.3
2023-05-11T11:59:23.670Z,982.3
2023-05-11T12:01:25.183Z,982.3
2023-05-11T12:05:28.568Z,982.3
2023-05-11T12:07:29.843Z,982.3
2023-05-11T12:11:32.533Z,982.3
2023-05-11T12:15:35.350Z,982.3
2023-05-11T12:17:36.395Z,982.3
2023-05-11T12:21:39.323Z,982.3
2023-05-11T12:27:42.694Z,982.3
2023-05-11T12:31:45.213Z,982.3
2023-05-11T12:33:46.293Z,982.2
2023-05-11T12:37:48.752Z,982.3
2023-05-11T12:41:51.954Z,982.3
2023-05-11T12:43:53.770Z,982.3
2023-05-11T12:47:56.662Z,982.2
2023-05-11T12:49:57.432Z,982.2
2023-05-11T12:54:00.239Z,982.2
2023-05-11T12:56:45.325Z,982.1
2023-05-11T12:58:46.530Z,982.2
2023-05-11T13:00:47.780Z,982.2
2023-05-11T13:04:50.565Z,982.2
2023-05-11T13:06:52.241Z,982.2
2023-05-11T13:08:54.127Z,982.1
2023-05-11T13:10:54.996Z,982.2
2023-05-11T13:14:58.549Z,982.1
2023-05-11T13:19:00.925Z,982.1
2023-05-11T13:21:02.485Z,982.2
2023-05-11T13:25:05.792Z,982.1
2023-05-11T13:27:07.042Z,982.1
2023-05-11T13:31:09.681Z,982.2
2023-05-11T13:35:13.108Z,982.1
2023-05-11T13:37:14.054Z,982.1
2023-05-11T13:41:16.752Z,982
2023-05-11T13:43:18.290Z,982.1
2023-05-11T13:47:21.173Z,982
2023-05-11T13:51:24.791Z,982.1
2023-05-11T13:53:26.662Z,982.1
2023-05-11T13:57:29.575Z,982
2023-05-11T14:01:33.202Z,981.9
2023-05-11T14:03:34.161Z,981.9
2023-05-11T14:07:46.768Z,981.9
2023-05-11T14:09:38.584Z,981.8
2023-05-11T14:11:40.306Z,981.8
2023-05-11T14:13:41.222Z,981.9
2023-05-11T14:17:44.180Z,981.9
2023-05-11T14:19:45.269Z,981.9
2023-05-11T14:21:46.595Z,981.8
2023-05-11T14:23:57.972Z,981.8
2023-05-11T14:25:49.098Z,981.9
2023-05-11T14:29:51.237Z,981.8
2023-05-11T14:35:54.573Z,981.7
2023-05-11T14:39:57.268Z,981.8
2023-05-11T14:41:58.186Z,981.7
2023-05-11T14:43:59.922Z,981.6
2023-05-11T14:46:01.161Z,981.7
2023-05-11T14:50:03.434Z,981.7
2023-05-11T14:52:04.596Z,981.5
2023-05-11T14:54:06.361Z,981.7
2023-05-11T14:56:08.638Z,981.5
2023-05-11T14:58:09.770Z,981.6
2023-05-11T15:02:12.094Z,981.6
2023-05-11T15:06:14.955Z,981.6
2023-05-11T15:08:28.812Z,981.6
2023-05-11T15:12:18.602Z,981.7
2023-05-11T15:14:20.231Z,981.6
2023-05-11T15:18:24.053Z,981.6
2023-05-11T15:22:26.828Z,981.7
2023-05-11T15:24:27.935Z,981.5
2023-05-11T15:28:31.599Z,981.6
2023-05-11T15:32:34.428Z,981.7
2023-05-11T15:34:44.495Z,981.8
2023-05-11T15:38:38.680Z,981.7
2023-05-11T15:40:40.276Z,981.7
2023-05-11T15:44:43.194Z,981.7
2023-05-11T15:48:45.800Z,981.6
2023-05-11T15:50:47.241Z,981.7
2023-05-11T15:54:50.405Z,981.7
2023-05-11T15:56:51.467Z,981.7
2023-05-11T16:00:55.357Z,981.7
2023-05-11T16:04:57.107Z,981.7
2023-05-11T16:06:59.034Z,981.7
2023-05-11T16:11:01.906Z,981.7
2023-05-11T16:15:04.203Z,981.7
2023-05-11T16:17:06.128Z,981.7
2023-05-11T16:21:08.427Z,981.6
2023-05-11T16:23:09.326Z,981.6
2023-05-11T16:27:11.977Z,981.6
2023-05-11T16:31:14.677Z,981.5
2023-05-11T16:33:16.464Z,981.6
2023-05-11T16:37:19.435Z,981.6
2023-05-11T16:39:21.081Z,981.6
2023-05-11T16:43:23.566Z,981.6
2023-05-11T16:47:26.240Z,981.6
2023-05-11T16:49:27.668Z,981.5
2023-05-11T16:53:30.607Z,981.6
2023-05-11T16:57:33.611Z,981.6
2023-05-11T16:59:34.904Z,981.5
2023-05-11T17:03:37.680Z,981.6
2023-05-11T17:05:39.201Z,981.6
2023-05-11T17:09:42.050Z,981.6
2023-05-11T17:13:44.817Z,981.6
2023-05-11T17:15:46.377Z,981.6
2023-05-11T17:19:49.018Z,981.6
2023-05-11T17:21:50.615Z,981.6
2023-05-11T17:25:53.314Z,981.6
2023-05-11T17:29:56.227Z,981.6
2023-05-11T17:31:58.070Z,981.5
2023-05-11T17:35:59.979Z,981.6
2023-05-11T17:38:01.402Z,981.7
2023-05-11T17:42:03.896Z,981.8
2023-05-11T17:46:07.044Z,981.6
2023-05-11T17:48:07.985Z,981.7
2023-05-11T17:50:09.375Z,981.7
2023-05-11T17:52:11.167Z,981.7
2023-05-11T17:56:14.596Z,981.7
2023-05-11T17:58:15.899Z,981.7
2023-05-11T18:00:17.584Z,981.7
2023-05-11T18:02:18.943Z,981.7
2023-05-11T18:04:20.589Z,981.7
2023-05-11T18:08:22.614Z,981.7
2023-05-11T18:12:25.721Z,981.7
2023-05-11T18:14:27.576Z,981.7
2023-05-11T18:18:30.321Z,981.8
2023-05-11T18:20:31.404Z,981.8
2023-05-11T18:24:34.248Z,981.8
2023-05-11T18:28:37.130Z,981.8
2023-05-11T18:30:46.278Z,981.8
2023-05-11T18:34:40.263Z,981.7
2023-05-11T18:38:42.501Z,981.8
2023-05-11T18:40:44.183Z,981.8
2023-05-11T18:44:47.219Z,981.8
2023-05-11T18:46:48.397Z,981.8
2023-05-11T18:50:51.065Z,981.8
2023-05-11T18:54:56.123Z,981.9
2023-05-11T18:56:55.894Z,982
2023-05-11T19:00:58.195Z,981.9
2023-05-11T19:03:00.067Z,981.9
2023-05-11T19:07:03.005Z,981.9
2023-05-11T19:11:05.741Z,982
2023-05-11T19:13:07.439Z,982.1
2023-05-11T19:17:10.152Z,982.1
2023-05-11T19:21:13.417Z,982.1
2023-05-11T19:23:14.436Z,982
2023-05-11T19:27:16.935Z,982.1
2023-05-11T19:29:17.966Z,982.1
2023-05-11T19:31:19.203Z,982.2
2023-05-11T19:33:20.532Z,982.2
2023-05-11T19:37:22.491Z,982.2
2023-05-11T19:39:24.209Z,982.2
2023-05-11T19:44:10.572Z,982.1
2023-05-11T19:48:13.154Z,982.2
2023-05-11T19:50:14.957Z,982.2
2023-05-11T19:54:17.590Z,982.2
2023-05-11T19:56:18.715Z,982.1
2023-05-11T20:00:21.808Z,982.2
2023-05-11T20:04:24.515Z,982.1
2023-05-11T20:06:25.959Z,982.1
2023-05-11T20:10:28.723Z,982.2
2023-05-11T20:14:32.205Z,982.2
2023-05-11T20:16:33.972Z,982.2
2023-05-11T20:20:37.076Z,982.2
2023-05-11T20:22:38.884Z,982.2
2023-05-11T20:26:41.268Z,982.2
2023-05-11T20:30:43.278Z,982.2
2023-05-11T20:36:48.463Z,982.2
2023-05-11T20:38:49.669Z,982.1
2023-05-11T20:42:51.962Z,982.2
2023-05-11T20:46:54.484Z,982.1
2023-05-11T20:48:56.278Z,982.1
2023-05-11T20:52:58.737Z,982.1
2023-05-11T20:57:01.127Z,982.1
2023-05-11T20:59:02.401Z,982.1
2023-05-11T21:03:06.634Z,982.1
2023-05-11T21:05:08.263Z,982.1
2023-05-11T21:09:11.002Z,982.1
2023-05-11T21:13:13.316Z,982.1
2023-05-11T21:15:15.037Z,982.1
2023-05-11T21:17:17.224Z,982.1
2023-05-11T21:19:18.002Z,982.2
2023-05-11T21:21:19.274Z,981.9
2023-05-11T21:25:21.469Z,982
2023-05-11T21:27:22.665Z,982
2023-05-11T21:29:24.249Z,982.1
2023-05-11T21:31:25.927Z,982.2
2023-05-11T21:35:37.070Z,982.1
2023-05-11T21:39:32.425Z,982.2
2023-05-11T21:41:33.663Z,982.2
2023-05-11T21:45:36.815Z,982.2
2023-05-11T21:47:38.134Z,982.2
2023-05-11T21:49:39.624Z,982.2
2023-05-11T21:51:41.200Z,982.2
2023-05-11T21:55:44.954Z,982.1
2023-05-11T21:57:45.654Z,982.2
2023-05-11T22:01:48.413Z,982.1
2023-05-11T22:03:49.438Z,982.2
2023-05-11T22:07:53.953Z,982.2
2023-05-11T22:09:53.347Z,982.2
2023-05-11T22:11:55.228Z,982.2
2023-05-11T22:13:56.559Z,982.2
2023-05-11T22:17:58.655Z,982.3
2023-05-11T22:20:00.208Z,982.1
2023-05-11T22:24:03.661Z,982.1
2023-05-11T22:28:05.940Z,982.2
2023-05-11T22:30:07.505Z,982.1
2023-05-11T22:34:09.762Z,982.1
2023-05-11T22:38:12.432Z,982.1
2023-05-11T22:40:14.066Z,982.2
2023-05-11T22:44:17.471Z,982.2
2023-05-11T22:46:19.157Z,982.2
2023-05-11T22:50:22.078Z,982.2
2023-05-11T22:54:24.926Z,982.2
2023-05-11T22:56:26.590Z,982.3
2023-05-11T23:00:30.149Z,982.2
2023-05-11T23:02:31.920Z,982.3
2023-05-11T23:06:34.828Z,982.3
2023-05-11T23:10:37.336Z,982.3
2023-05-11T23:12:38.867Z,982.3
2023-05-11T23:16:42.505Z,982.2
2023-05-11T23:20:44.861Z,982.2
2023-05-11T23:22:46.175Z,982.2
2023-05-11T23:26:49.566Z,982.2
2023-05-11T23:28:50.801Z,982.3
2023-05-11T23:32:53.458Z,982.3
2023-05-11T23:36:56.156Z,982.2
2023-05-11T23:38:58.070Z,982.3
2023-05-11T23:43:00.289Z,982.2
2023-05-11T23:45:01.756Z,982.2
2023-05-11T23:49:04.497Z,982.2
2023-05-11T23:53:06.758Z,982.1
2023-05-11T23:55:08.509Z,982.2
2023-05-11T23:59:11.425Z,982.2
